createdAt,value
2018-05-24T00:04:46.708Z,4.35
2018-05-24T00:10:41.697Z,4.11
2018-05-24T00:16:36.710Z,3.57
2018-05-24T00:22:31.700Z,3.44
2018-05-24T00:28:26.707Z,3.81
2018-05-24T00:34:21.715Z,3.8
2018-05-24T00:40:16.720Z,4.12
2018-05-24T00:46:11.710Z,4.71
2018-05-24T00:52:06.695Z,4.46
2018-05-24T00:58:01.713Z,4.19
2018-05-24T01:03:56.749Z,4.11
2018-05-24T01:09:51.731Z,4.6
2018-05-24T01:15:46.791Z,4.46
2018-05-24T01:21:41.778Z,5.08
2018-05-24T01:27:36.726Z,4.65
2018-05-24T01:33:31.738Z,4.92
2018-05-24T01:39:26.742Z,4.33
2018-05-24T01:45:21.740Z,4.32
2018-05-24T01:51:16.736Z,4.69
2018-05-24T01:57:11.733Z,3.86
2018-05-24T02:03:06.738Z,4.98
2018-05-24T02:09:01.830Z,4.31
2018-05-24T02:14:56.759Z,3.87
2018-05-24T02:20:51.757Z,4.5
2018-05-24T02:26:46.767Z,3.44
2018-05-24T02:32:41.760Z,4.12
2018-05-24T02:38:36.773Z,4.17
2018-05-24T02:44:31.775Z,4.15
2018-05-24T02:50:26.779Z,4.07
2018-05-24T02:56:21.886Z,4.64
2018-05-24T03:02:16.791Z,4.56
2018-05-24T03:08:11.810Z,4.28
2018-05-24T03:14:06.808Z,9.18
2018-05-24T03:20:01.810Z,5.26
2018-05-24T03:25:56.777Z,9.19
2018-05-24T03:31:51.840Z,5.3
2018-05-24T03:37:46.798Z,6.94
2018-05-24T03:43:41.840Z,5.62
2018-05-24T03:49:36.848Z,5.23
2018-05-24T03:55:31.832Z,5.23
2018-05-24T04:01:26.832Z,7.7
2018-05-24T04:07:21.815Z,6.09
2018-05-24T04:13:16.890Z,5.34
2018-05-24T04:19:11.864Z,5.85
2018-05-24T04:25:06.881Z,6.62
2018-05-24T04:31:01.827Z,5.18
2018-05-24T04:36:56.899Z,5.82
2018-05-24T04:42:51.901Z,9.91
2018-05-24T04:48:46.849Z,4.87
2018-05-24T04:54:41.825Z,5.56
2018-05-24T05:00:36.883Z,5.59
2018-05-24T05:06:31.861Z,5.99
2018-05-24T05:12:27.184Z,5.57
2018-05-24T05:18:21.897Z,6.3
2018-05-24T05:24:16.872Z,5.61
2018-05-24T05:30:11.851Z,7.33
2018-05-24T05:36:06.885Z,6.16
2018-05-24T05:42:01.867Z,7.03
2018-05-24T05:47:56.902Z,10.66
2018-05-24T05:53:51.911Z,11.89
2018-05-24T05:59:46.906Z,10.13
2018-05-24T06:05:41.863Z,10.03
2018-05-24T06:11:36.873Z,14.2
2018-05-24T06:17:31.877Z,13.35
2018-05-24T06:23:26.905Z,14.95
2018-05-24T06:29:21.883Z,14.24
2018-05-24T06:35:17.032Z,13.47
2018-05-24T06:41:11.898Z,15.58
2018-05-24T06:47:06.899Z,8.07
2018-05-24T06:53:01.950Z,13.91
2018-05-24T06:58:56.931Z,18.84
2018-05-24T07:04:51.980Z,12.47
2018-05-24T07:10:46.933Z,13.66
2018-05-24T07:16:41.926Z,13.5
2018-05-24T07:22:36.962Z,11.83
2018-05-24T07:28:31.929Z,14.68
2018-05-24T07:34:26.945Z,10.92
2018-05-24T07:40:21.971Z,14.85
2018-05-24T07:46:16.952Z,13.29
2018-05-24T07:52:11.953Z,9.47
2018-05-24T07:58:06.967Z,12.02
2018-05-24T08:04:01.971Z,11.3
2018-05-24T08:09:56.942Z,11.46
2018-05-24T08:15:51.994Z,12.5
2018-05-24T08:21:46.971Z,14.04
2018-05-24T08:27:42.025Z,10.92
2018-05-24T08:33:36.973Z,9.71
2018-05-24T08:39:31.995Z,10.2
2018-05-24T08:45:26.972Z,10.03
2018-05-24T08:51:22.010Z,11.05
2018-05-24T08:57:17.007Z,8.98
2018-05-24T09:03:11.999Z,12.63
2018-05-24T09:09:07.127Z,11.53
2018-05-24T09:15:02.222Z,9.71
2018-05-24T09:20:57.018Z,10.6
2018-05-24T09:26:52.011Z,11.87
2018-05-24T09:32:46.999Z,12.35
2018-05-24T09:38:41.995Z,12.49
2018-05-24T09:44:37.030Z,24.29
2018-05-24T09:50:32.032Z,13.16
2018-05-24T09:56:27.012Z,12.24
2018-05-24T10:02:22.018Z,13.67
2018-05-24T10:08:17.028Z,28.3
2018-05-24T10:14:12.030Z,75.92
2018-05-24T10:20:07.034Z,54.18
2018-05-24T10:26:02.020Z,151.54
2018-05-24T10:31:57.276Z,42.56
2018-05-24T10:37:52.092Z,178.5
2018-05-24T10:43:47.067Z,32.76
2018-05-24T10:49:42.075Z,16.21
2018-05-24T10:55:37.144Z,186.95
2018-05-24T11:01:32.116Z,217.9
2018-05-24T11:07:27.028Z,232.19
2018-05-24T11:13:22.033Z,214.32
2018-05-24T11:19:17.095Z,151.24
2018-05-24T11:25:12.081Z,275.29
2018-05-24T11:31:07.052Z,250.97
2018-05-24T11:37:02.152Z,252.26
2018-05-24T11:42:57.045Z,165.68
2018-05-24T11:48:52.067Z,73.42
2018-05-24T11:54:47.059Z,114.9
2018-05-24T12:00:42.104Z,157.47
2018-05-24T12:06:37.135Z,261.22
2018-05-24T12:12:32.103Z,176.76
2018-05-24T12:18:27.094Z,149.57
2018-05-24T12:24:22.124Z,164.12
2018-05-24T12:30:17.127Z,98.87
2018-05-24T12:36:12.314Z,35.69
2018-05-24T12:42:07.089Z,23.52
2018-05-24T12:48:02.449Z,15.96
2018-05-24T12:53:57.104Z,17.6
2018-05-24T12:59:52.124Z,13.29
2018-05-24T13:05:47.143Z,14.37
2018-05-24T13:11:42.226Z,12.8
2018-05-24T13:17:37.158Z,11.78
2018-05-24T13:23:32.113Z,12.35
2018-05-24T13:29:27.182Z,10.77
2018-05-24T13:35:22.124Z,12.67
2018-05-24T13:41:17.132Z,9.87
2018-05-24T13:47:12.136Z,9.83
2018-05-24T13:53:07.158Z,11.83
2018-05-24T13:59:02.156Z,8.75
2018-05-24T14:04:57.133Z,9.66
2018-05-24T14:10:52.206Z,9.61
2018-05-24T14:16:47.184Z,8.8
2018-05-24T14:22:42.171Z,9.73
2018-05-24T14:28:37.150Z,9.18
2018-05-24T14:34:32.210Z,8.74
2018-05-24T14:40:27.180Z,9.78
2018-05-24T14:46:22.183Z,9.11
2018-05-24T14:52:17.188Z,9.56
2018-05-24T14:58:12.169Z,9.74
2018-05-24T15:04:07.270Z,9.16
2018-05-24T15:10:02.190Z,7.75
2018-05-24T15:15:57.216Z,10.25
2018-05-24T15:21:52.192Z,8.97
2018-05-24T15:27:47.196Z,8.13
2018-05-24T15:33:42.216Z,8.62
2018-05-24T15:39:37.267Z,8.3
2018-05-24T15:45:32.254Z,7.72
2018-05-24T15:51:27.200Z,9.15
2018-05-24T15:57:22.204Z,10.2
2018-05-24T16:03:17.242Z,9.05
2018-05-24T16:09:12.273Z,8.84
2018-05-24T16:15:07.418Z,9.02
2018-05-24T16:21:02.242Z,8.08
2018-05-24T16:26:57.243Z,9.07
2018-05-24T16:32:52.226Z,8.64
2018-05-24T16:38:47.213Z,8.31
2018-05-24T16:44:42.235Z,8.36
2018-05-24T16:50:37.238Z,9.08
2018-05-24T16:56:32.273Z,7.82
2018-05-24T17:02:27.230Z,8.13
2018-05-24T17:08:22.254Z,8.95
2018-05-24T17:14:17.257Z,8.8
2018-05-24T17:20:12.278Z,8.52
2018-05-24T17:26:07.264Z,8.47
2018-05-24T17:32:02.262Z,8.55
2018-05-24T17:37:57.253Z,8.74
2018-05-24T17:43:52.320Z,8.95
2018-05-24T17:49:47.269Z,8.43
2018-05-24T17:55:42.296Z,7.8
2018-05-24T18:01:37.282Z,9
2018-05-24T18:07:32.327Z,8.94
2018-05-24T18:13:27.317Z,8.39
2018-05-24T18:19:22.312Z,9.05
2018-05-24T18:25:17.322Z,10.94
2018-05-24T18:31:12.337Z,12.08
2018-05-24T18:37:07.323Z,11.47
2018-05-24T18:43:02.320Z,12.49
2018-05-24T18:48:57.306Z,12.66
2018-05-24T18:54:52.491Z,12.75
2018-05-24T19:00:47.350Z,13.44
2018-05-24T19:06:42.368Z,10.81
2018-05-24T19:12:37.375Z,12.98
2018-05-24T19:18:32.349Z,11.52
2018-05-24T19:24:27.379Z,11.91
2018-05-24T19:30:22.336Z,13.56
2018-05-24T19:36:17.371Z,12.51
2018-05-24T19:42:12.313Z,10.95
2018-05-24T19:48:07.364Z,11.67
2018-05-24T19:54:02.352Z,12.1
2018-05-24T19:59:57.335Z,12.69
2018-05-24T20:05:52.337Z,12.03
2018-05-24T20:11:47.367Z,12.64
2018-05-24T20:17:42.354Z,12.22
2018-05-24T20:23:37.381Z,10.77
2018-05-24T20:29:32.366Z,11.73
2018-05-24T20:35:27.428Z,10.77
2018-05-24T20:41:22.387Z,11.03
2018-05-24T20:47:17.391Z,11.31
2018-05-24T20:53:12.492Z,10.91
2018-05-24T20:59:07.364Z,11.06
2018-05-24T21:05:02.640Z,11.83
2018-05-24T21:10:57.385Z,11.55
2018-05-24T21:16:52.413Z,11.97
2018-05-24T21:22:47.383Z,11.13
2018-05-24T21:28:42.422Z,10.5
2018-05-24T21:34:37.405Z,10.56
2018-05-24T21:40:32.393Z,10.41
2018-05-24T21:46:27.405Z,11.1
2018-05-24T21:52:22.430Z,10.36
2018-05-24T21:58:17.411Z,10.75
2018-05-24T22:04:12.390Z,13.67
2018-05-24T22:10:07.494Z,12.8
2018-05-24T22:16:02.407Z,14.4
2018-05-24T22:21:57.426Z,13.97
2018-05-24T22:27:52.446Z,15.14
2018-05-24T22:33:47.406Z,13.07
2018-05-24T22:39:42.466Z,15.41
2018-05-24T22:45:37.444Z,13.51
2018-05-24T22:51:32.435Z,13.16
2018-05-24T22:57:27.456Z,12.97
2018-05-24T23:03:22.449Z,14.35
2018-05-24T23:09:17.437Z,13.49
2018-05-24T23:15:12.460Z,14.19
2018-05-24T23:21:07.474Z,14.29
2018-05-24T23:27:02.511Z,13.92
2018-05-24T23:32:57.468Z,12.95
2018-05-24T23:38:52.444Z,13.11
2018-05-24T23:44:47.484Z,11.38
2018-05-24T23:50:42.485Z,11.85
2018-05-24T23:56:37.479Z,14.4
